createdAt,value
2023-01-18T00:00:12.987Z,77.50
2023-01-18T00:03:15.726Z,77.68
2023-01-18T00:06:18.636Z,77.51
2023-01-18T00:09:22.532Z,77.53
2023-01-18T00:12:24.977Z,77.87
2023-01-18T00:15:28.094Z,77.54
2023-01-18T00:18:30.748Z,77.92
2023-01-18T00:21:33.507Z,77.75
2023-01-18T00:24:37.360Z,77.44
2023-01-18T00:27:39.766Z,77.64
2023-01-18T00:30:42.378Z,77.25
2023-01-18T00:33:45.758Z,77.24
2023-01-18T00:36:49.736Z,77.11
2023-01-18T00:39:53.644Z,77.51
2023-01-18T00:43:13.957Z,77.58
2023-01-18T00:46:18.363Z,77.39
2023-01-18T00:49:20.909Z,77.42
2023-01-18T00:52:23.426Z,77.07
2023-01-18T00:55:27.763Z,77.01
2023-01-18T00:58:30.725Z,77.06
2023-01-18T01:01:33.328Z,77.36
2023-01-18T01:04:53.440Z,77.68
2023-01-18T01:07:56.056Z,77.92
2023-01-18T01:11:08.672Z,77.50
2023-01-18T01:14:28.847Z,77.56
2023-01-18T01:17:49.621Z,76.29
2023-01-18T01:21:09.845Z,76.37
2023-01-18T01:24:30.139Z,76.17
2023-01-18T01:27:34.160Z,75.48
2023-01-18T01:30:36.920Z,76.01
2023-01-18T01:33:39.953Z,76.23
2023-01-18T01:36:42.504Z,75.93
2023-01-18T01:39:45.043Z,75.55
2023-01-18T01:42:49.202Z,75.89
2023-01-18T01:45:52.773Z,75.30
2023-01-18T01:49:01.155Z,76.22
2023-01-18T01:52:05.455Z,75.99
2023-01-18T01:55:11.942Z,76.19
2023-01-18T01:58:17.091Z,76.20
2023-01-18T02:01:19.953Z,76.21
2023-01-18T02:04:22.703Z,75.70
2023-01-18T02:07:26.733Z,76.58
2023-01-18T02:10:30.123Z,76.17
2023-01-18T02:13:34.051Z,76.48
2023-01-18T02:16:43.734Z,76.57
2023-01-18T02:20:11.526Z,76.87
2023-01-18T02:23:32.840Z,77.44
2023-01-18T02:27:01.971Z,77.29
2023-01-18T02:30:11.710Z,77.39
2023-01-18T02:33:18.625Z,77.88
2023-01-18T02:36:27.147Z,78.66
2023-01-18T02:39:38.435Z,78.08
2023-01-18T02:43:00.582Z,79.42
2023-01-18T02:46:24.947Z,78.57
2023-01-18T02:49:32.115Z,79.25
2023-01-18T02:52:40.571Z,78.85
2023-01-18T02:55:47.986Z,78.84
2023-01-18T02:58:53.752Z,78.42
2023-01-18T03:02:00.409Z,79.26
2023-01-18T03:05:03.601Z,78.95
2023-01-18T03:08:10.731Z,78.23
2023-01-18T03:11:15.499Z,78.68
2023-01-18T03:14:24.065Z,78.40
2023-01-18T03:17:32.149Z,78.31
2023-01-18T03:20:39.296Z,77.77
2023-01-18T03:23:43.084Z,78.12
2023-01-18T03:26:48.475Z,77.75
2023-01-18T03:30:08.647Z,78.12
2023-01-18T03:33:31.302Z,78.80
2023-01-18T03:36:37.304Z,78.81
2023-01-18T03:39:42.889Z,79.29
2023-01-18T03:42:49.420Z,78.07
2023-01-18T03:45:54.288Z,77.57
2023-01-18T03:48:58.658Z,77.46
2023-01-18T03:52:08.808Z,78.26
2023-01-18T03:55:16.774Z,77.98
2023-01-18T03:58:22.954Z,77.42
2023-01-18T04:01:26.891Z,77.72
2023-01-18T04:04:30.934Z,77.52
2023-01-18T04:07:33.677Z,77.85
2023-01-18T04:10:36.479Z,77.57
2023-01-18T04:13:39.121Z,77.55
2023-01-18T04:16:41.660Z,77.83
2023-01-18T04:19:45.790Z,77.89
2023-01-18T04:22:52.691Z,77.85
2023-01-18T04:25:55.428Z,77.89
2023-01-18T04:28:57.952Z,78.46
2023-01-18T04:32:00.636Z,78.68
2023-01-18T04:35:04.973Z,78.62
2023-01-18T04:38:07.508Z,78.68
2023-01-18T04:41:10.137Z,79.32
2023-01-18T04:44:12.930Z,79.42
2023-01-18T04:47:15.631Z,79.67
2023-01-18T04:50:19.836Z,80.20
2023-01-18T04:53:23.124Z,80.73
2023-01-18T04:56:25.811Z,80.13
2023-01-18T04:59:28.459Z,79.97
2023-01-18T05:02:31.117Z,79.80
2023-01-18T05:05:35.044Z,79.07
2023-01-18T05:08:40.854Z,79.05
2023-01-18T05:11:43.900Z,79.36
2023-01-18T05:14:46.458Z,79.67
2023-01-18T05:17:49.074Z,79.72
2023-01-18T05:20:53.347Z,79.57
2023-01-18T05:23:56.081Z,79.19
2023-01-18T05:26:58.638Z,79.11
2023-01-18T05:30:01.978Z,79.49
2023-01-18T05:33:04.653Z,78.91
2023-01-18T05:39:35.543Z,78.25
2023-01-18T05:42:38.236Z,78.03
2023-01-18T05:45:41.238Z,78.24
2023-01-18T05:48:43.865Z,78.13
2023-01-18T05:51:47.860Z,77.81
2023-01-18T05:54:50.530Z,79.26
2023-01-18T05:57:53.352Z,78.92
2023-01-18T06:00:56.234Z,78.63
2023-01-18T06:03:59.255Z,78.22
2023-01-18T06:07:03.259Z,77.60
2023-01-18T06:10:07.118Z,77.10
2023-01-18T06:13:09.575Z,77.16
2023-01-18T06:16:13.218Z,78.35
2023-01-18T06:19:15.938Z,77.57
2023-01-18T06:22:20.502Z,78.40
2023-01-18T06:25:23.166Z,79.04
2023-01-18T06:28:26.091Z,78.93
2023-01-18T06:31:28.933Z,79.21
2023-01-18T06:34:32.433Z,78.48
2023-01-18T06:37:36.534Z,78.96
2023-01-18T06:40:39.457Z,79.19
2023-01-18T06:43:42.119Z,79.57
2023-01-18T06:46:44.823Z,79.01
2023-01-18T06:49:47.983Z,78.42
2023-01-18T06:52:52.118Z,79.08
2023-01-18T06:55:58.811Z,79.01
2023-01-18T06:59:01.482Z,79.68
2023-01-18T07:02:04.839Z,78.76
2023-01-18T07:05:08.088Z,77.96
2023-01-18T07:08:12.351Z,78.42
2023-01-18T07:11:15.248Z,78.72
2023-01-18T07:14:20.392Z,79.25
2023-01-18T07:17:23.080Z,78.56
2023-01-18T07:20:26.333Z,79.21
2023-01-18T07:23:31.327Z,78.29
2023-01-18T07:26:35.209Z,78.48
2023-01-18T07:29:37.645Z,77.80
2023-01-18T07:32:40.865Z,77.56
2023-01-18T07:35:43.669Z,78.21
2023-01-18T07:38:49.097Z,77.60
2023-01-18T07:41:51.933Z,77.40
2023-01-18T07:44:54.518Z,76.52
2023-01-18T07:47:57.159Z,77.02
2023-01-18T07:51:01.497Z,77.38
2023-01-18T07:54:05.779Z,76.05
2023-01-18T07:57:08.401Z,76.42
2023-01-18T08:00:12.336Z,75.39
2023-01-18T08:03:15.857Z,76.24
2023-01-18T08:06:21.801Z,76.16
2023-01-18T08:09:25.921Z,76.32
2023-01-18T08:12:28.522Z,76.56
2023-01-18T08:15:31.219Z,74.50
2023-01-18T08:18:34.050Z,74.80
2023-01-18T08:21:36.756Z,75.47
2023-01-18T08:24:40.723Z,75.43
2023-01-18T08:27:43.232Z,75.25
2023-01-18T08:30:47.438Z,74.24
2023-01-18T08:33:51.031Z,74.66
2023-01-18T08:36:53.772Z,73.65
2023-01-18T08:39:58.247Z,74.02
2023-01-18T08:43:01.615Z,73.92
2023-01-18T08:46:04.613Z,72.60
2023-01-18T08:49:07.612Z,72.96
2023-01-18T08:52:10.942Z,72.53
2023-01-18T08:55:14.949Z,71.67
2023-01-18T08:58:17.800Z,71.24
2023-01-18T09:01:23.471Z,72.12
2023-01-18T09:04:27.916Z,72.43
2023-01-18T09:07:30.712Z,72.83
2023-01-18T09:10:37.363Z,71.54
2023-01-18T09:13:54.629Z,72.47
2023-01-18T09:17:01.886Z,72.35
2023-01-18T09:20:09.545Z,71.39
2023-01-18T09:23:12.259Z,71.01
2023-01-18T09:26:18.355Z,70.74
2023-01-18T09:29:21.081Z,71.53
2023-01-18T09:32:25.418Z,70.99
2023-01-18T09:35:28.053Z,71.30
2023-01-18T09:38:31.002Z,70.75
2023-01-18T09:41:36.424Z,71.89
2023-01-18T09:44:40.985Z,70.94
2023-01-18T09:47:46.226Z,69.94
2023-01-18T09:50:48.904Z,70.24
2023-01-18T09:53:59.471Z,70.21
2023-01-18T09:57:08.939Z,69.69
2023-01-18T10:00:20.490Z,70.54
2023-01-18T10:03:26.180Z,70.38
2023-01-18T10:06:32.781Z,71.04
2023-01-18T10:09:39.643Z,71.60
2023-01-18T10:12:46.407Z,69.18
2023-01-18T10:15:49.492Z,69.55
2023-01-18T10:18:55.602Z,70.87
2023-01-18T10:22:03.523Z,70.63
2023-01-18T10:25:14.190Z,68.60
2023-01-18T10:28:27.360Z,66.98
2023-01-18T10:31:38.884Z,67.61
2023-01-18T10:34:45.688Z,68.85
2023-01-18T10:37:49.052Z,69.46
2023-01-18T10:40:56.486Z,69.66
2023-01-18T10:44:00.513Z,66.61
2023-01-18T10:47:03.378Z,66.79
2023-01-18T10:50:13.371Z,66.12
2023-01-18T10:53:21.816Z,65.53
2023-01-18T10:56:25.503Z,68.48
2023-01-18T10:59:35.562Z,67.89
2023-01-18T11:02:39.516Z,67.90
2023-01-18T11:05:42.164Z,67.33
2023-01-18T11:08:45.225Z,67.58
2023-01-18T11:12:05.423Z,68.57
2023-01-18T11:15:29.981Z,69.57
2023-01-18T11:18:32.679Z,67.83
2023-01-18T11:21:45.968Z,68.15
2023-01-18T11:24:53.861Z,67.42
2023-01-18T11:28:02.257Z,68.15
2023-01-18T11:31:11.863Z,67.13
2023-01-18T11:34:23.672Z,67.04
2023-01-18T11:37:31.998Z,66.77
2023-01-18T11:40:35.578Z,66.77
2023-01-18T11:43:39.479Z,66.67
2023-01-18T11:46:46.372Z,65.35
2023-01-18T11:49:55.235Z,67.00
2023-01-18T11:53:03.361Z,67.93
2023-01-18T11:56:10.517Z,66.79
2023-01-18T11:59:16.003Z,67.93
2023-01-18T12:02:56.032Z,66.15
2023-01-18T12:06:04.596Z,64.83
2023-01-18T12:09:22.243Z,63.73
2023-01-18T12:12:37.625Z,63.48
2023-01-18T12:15:58.181Z,64.06
2023-01-18T12:19:25.663Z,63.59
2023-01-18T12:23:01.483Z,64.51
2023-01-18T12:26:18.163Z,64.12
2023-01-18T12:29:36.404Z,63.89
2023-01-18T12:32:50.393Z,64.75
2023-01-18T12:36:11.769Z,65.71
2023-01-18T12:39:30.952Z,65.23
2023-01-18T12:42:44.511Z,65.21
2023-01-18T12:45:50.127Z,63.83
2023-01-18T12:48:55.774Z,64.25
2023-01-18T12:52:17.731Z,63.55
2023-01-18T12:55:23.775Z,63.17
2023-01-18T12:58:27.338Z,62.35
2023-01-18T13:01:32.710Z,63.66
2023-01-18T13:04:37.927Z,62.91
2023-01-18T13:07:45.439Z,62.89
2023-01-18T13:10:48.839Z,62.26
2023-01-18T13:13:55.039Z,60.36
2023-01-18T13:17:02.228Z,60.55
2023-01-18T13:20:07.745Z,60.64
2023-01-18T13:23:21.587Z,60.28
2023-01-18T13:26:26.943Z,60.03
2023-01-18T13:29:30.568Z,61.01
2023-01-18T13:32:35.044Z,61.32
2023-01-18T13:35:38.441Z,61.53
2023-01-18T13:38:50.354Z,62.31
2023-01-18T13:42:10.597Z,61.96
2023-01-18T13:45:19.793Z,61.42
2023-01-18T13:48:41.472Z,61.59
2023-01-18T13:51:54.005Z,61.17
2023-01-18T13:55:24.031Z,61.42
2023-01-18T13:58:28.138Z,61.87
2023-01-18T14:01:34.885Z,61.30
2023-01-18T14:04:37.719Z,61.07
2023-01-18T14:07:44.190Z,61.88
2023-01-18T14:10:50.935Z,61.19
2023-01-18T14:14:05.905Z,61.92
2023-01-18T14:17:15.155Z,61.32
2023-01-18T14:20:44.599Z,61.72
2023-01-18T14:24:02.717Z,62.30
2023-01-18T14:27:09.373Z,62.64
2023-01-18T14:30:17.853Z,63.06
2023-01-18T14:33:24.978Z,63.02
2023-01-18T14:36:29.321Z,63.63
2023-01-18T14:39:33.317Z,63.75
2023-01-18T14:42:40.971Z,63.69
2023-01-18T14:45:52.498Z,64.05
2023-01-18T14:48:57.644Z,64.16
2023-01-18T14:52:00.636Z,63.07
2023-01-18T14:55:04.308Z,63.38
2023-01-18T14:58:15.046Z,63.46
2023-01-18T15:01:27.132Z,63.71
2023-01-18T15:04:31.206Z,63.15
2023-01-18T15:07:34.978Z,63.05
2023-01-18T15:10:39.187Z,63.25
2023-01-18T15:13:47.574Z,63.96
2023-01-18T15:16:53.183Z,63.68
2023-01-18T15:19:56.956Z,63.35
2023-01-18T15:22:59.888Z,63.05
2023-01-18T15:26:06.150Z,63.28
2023-01-18T15:29:15.841Z,63.43
2023-01-18T15:32:21.185Z,62.90
2023-01-18T15:35:25.578Z,63.00
2023-01-18T15:38:28.565Z,63.43
2023-01-18T15:41:33.402Z,63.08
2023-01-18T15:44:42.362Z,63.84
2023-01-18T15:47:49.076Z,62.89
2023-01-18T15:50:52.968Z,62.73
2023-01-18T15:53:56.490Z,63.82
2023-01-18T15:57:11.651Z,63.70
2023-01-18T16:00:30.277Z,63.21
2023-01-18T16:03:36.676Z,63.77
2023-01-18T16:06:40.326Z,63.11
2023-01-18T16:09:43.357Z,63.64
2023-01-18T16:12:46.385Z,63.76
2023-01-18T16:16:16.117Z,63.85
2023-01-18T16:19:24.315Z,62.89
2023-01-18T16:22:28.744Z,63.43
2023-01-18T16:25:31.555Z,64.25
2023-01-18T16:28:34.080Z,65.09
2023-01-18T16:31:41.978Z,65.28
2023-01-18T16:34:44.727Z,65.99
2023-01-18T16:37:47.981Z,66.33
2023-01-18T16:40:51.691Z,65.82
2023-01-18T16:43:54.293Z,65.25
2023-01-18T16:46:58.656Z,64.29
2023-01-18T16:50:01.455Z,64.92
2023-01-18T16:53:04.402Z,65.98
2023-01-18T16:56:07.532Z,67.18
2023-01-18T16:59:17.105Z,66.76
2023-01-18T17:02:22.006Z,65.56
2023-01-18T17:05:24.781Z,64.90
2023-01-18T17:08:27.488Z,64.28
2023-01-18T17:11:30.126Z,64.52
2023-01-18T17:14:32.862Z,65.56
2023-01-18T17:17:37.018Z,65.98
2023-01-18T17:20:39.961Z,65.26
2023-01-18T17:23:42.606Z,65.44
2023-01-18T17:26:45.406Z,64.99
2023-01-18T17:29:48.180Z,65.64
2023-01-18T17:32:52.372Z,65.74
2023-01-18T17:36:05.583Z,63.96
2023-01-18T17:39:08.217Z,64.12
2023-01-18T17:42:12.236Z,64.04
2023-01-18T17:45:17.063Z,65.62
2023-01-18T17:48:21.039Z,65.54
2023-01-18T17:51:23.629Z,66.04
2023-01-18T17:54:26.494Z,67.04
2023-01-18T17:57:29.636Z,66.28
2023-01-18T18:00:32.229Z,65.62
2023-01-18T18:03:36.146Z,64.19
2023-01-18T18:06:46.086Z,64.45
2023-01-18T18:09:56.737Z,63.98
2023-01-18T18:12:59.622Z,63.78
2023-01-18T18:16:02.517Z,63.96
2023-01-18T18:19:06.570Z,64.55
2023-01-18T18:22:09.107Z,64.42
2023-01-18T18:25:12.018Z,64.52
2023-01-18T18:28:16.172Z,64.25
2023-01-18T18:31:20.533Z,64.94
2023-01-18T18:34:24.782Z,64.37
2023-01-18T18:37:27.838Z,63.63
2023-01-18T18:40:30.415Z,64.42
2023-01-18T18:43:33.259Z,64.25
2023-01-18T18:46:36.198Z,63.82
2023-01-18T18:49:41.779Z,63.86
2023-01-18T18:52:44.397Z,64.75
2023-01-18T18:55:47.677Z,64.18
2023-01-18T18:58:50.622Z,64.23
2023-01-18T19:01:53.313Z,63.96
2023-01-18T19:04:57.258Z,63.97
2023-01-18T19:07:59.715Z,63.47
2023-01-18T19:11:02.481Z,63.85
2023-01-18T19:14:05.127Z,63.69
2023-01-18T19:17:09.088Z,64.07
2023-01-18T19:20:15.789Z,64.68
2023-01-18T19:23:18.674Z,64.08
2023-01-18T19:26:21.625Z,63.95
2023-01-18T19:29:24.673Z,64.15
2023-01-18T19:32:27.582Z,64.37
2023-01-18T19:35:33.332Z,64.13
2023-01-18T19:38:43.626Z,64.08
2023-01-18T19:41:49.814Z,64.00
2023-01-18T19:44:59.232Z,64.41
2023-01-18T19:48:02.373Z,63.91
2023-01-18T19:51:20.685Z,63.72
2023-01-18T19:54:24.193Z,63.21
2023-01-18T19:57:27.367Z,63.45
2023-01-18T20:00:30.659Z,63.70
2023-01-18T20:03:33.822Z,63.34
2023-01-18T20:06:39.464Z,63.87
2023-01-18T20:09:43.616Z,64.19
2023-01-18T20:12:46.522Z,64.36
2023-01-18T20:15:50.724Z,63.96
2023-01-18T20:18:54.381Z,63.70
2023-01-18T20:21:58.373Z,64.27
2023-01-18T20:25:00.931Z,63.70
2023-01-18T20:28:03.852Z,63.50
2023-01-18T20:31:07.350Z,64.04
2023-01-18T20:34:10.912Z,63.96
2023-01-18T20:37:16.381Z,63.71
2023-01-18T20:40:19.713Z,63.57
2023-01-18T20:43:22.386Z,63.74
2023-01-18T20:46:25.025Z,63.36
2023-01-18T20:49:38.577Z,63.42
2023-01-18T20:52:42.948Z,63.68
2023-01-18T20:55:45.695Z,64.48
2023-01-18T20:58:48.374Z,64.32
2023-01-18T21:01:51.349Z,64.50
2023-01-18T21:04:54.122Z,64.72
2023-01-18T21:07:58.290Z,64.67
2023-01-18T21:11:01.309Z,64.99
2023-01-18T21:14:04.063Z,64.56
2023-01-18T21:17:06.603Z,64.73
2023-01-18T21:20:12.456Z,64.94
2023-01-18T21:23:17.592Z,65.28
2023-01-18T21:26:20.387Z,65.40
2023-01-18T21:29:23.020Z,65.31
2023-01-18T21:32:25.995Z,65.30
2023-01-18T21:35:29.798Z,65.47
2023-01-18T21:38:33.822Z,65.53
2023-01-18T21:41:54.093Z,66.10
2023-01-18T21:45:14.587Z,65.71
2023-01-18T21:48:17.975Z,65.89
2023-01-18T21:51:40.195Z,66.20
2023-01-18T21:54:44.065Z,66.72
2023-01-18T21:58:06.555Z,65.97
2023-01-18T22:01:12.481Z,66.89
2023-01-18T22:04:34.836Z,66.61
2023-01-18T22:07:37.368Z,65.98
2023-01-18T22:10:41.198Z,66.19
2023-01-18T22:13:43.888Z,66.53
2023-01-18T22:16:46.643Z,65.87
2023-01-18T22:19:49.492Z,66.88
2023-01-18T22:22:52.051Z,67.05
2023-01-18T22:25:56.625Z,66.92
2023-01-18T22:28:59.390Z,66.73
2023-01-18T22:32:03.035Z,67.12
2023-01-18T22:35:06.427Z,67.27
2023-01-18T22:38:09.753Z,67.32
2023-01-18T22:41:15.864Z,68.11
2023-01-18T22:44:18.442Z,67.55
2023-01-18T22:47:21.180Z,67.55
2023-01-18T22:50:23.824Z,68.01
2023-01-18T22:53:27.997Z,67.46
2023-01-18T22:56:31.927Z,68.07
2023-01-18T22:59:34.308Z,69.04
2023-01-18T23:02:36.952Z,69.74
2023-01-18T23:05:39.929Z,69.80
2023-01-18T23:08:43.363Z,68.61
2023-01-18T23:11:47.963Z,68.86
2023-01-18T23:15:08.079Z,68.93
2023-01-18T23:18:10.690Z,69.10
2023-01-18T23:21:13.353Z,69.08
2023-01-18T23:24:16.134Z,69.84
2023-01-18T23:27:20.195Z,70.19
2023-01-18T23:30:22.780Z,70.64
2023-01-18T23:33:25.355Z,70.42
2023-01-18T23:36:28.066Z,69.47
2023-01-18T23:39:48.489Z,69.88
2023-01-18T23:43:12.641Z,70.73
2023-01-18T23:46:32.704Z,70.23
2023-01-18T23:49:52.782Z,70.57
2023-01-18T23:53:12.984Z,70.33
2023-01-18T23:56:15.542Z,71.07
2023-01-18T23:59:19.589Z,71.17
